Wellsburg, Iowa
Current Conditions -  °F | °C
As of 6:35 PM on Wednesday 22 Oct 2014 (Local Time) from KIFA Reporting Station
Broken Clouds Broken Clouds  
Wind Chill: 58°   Ceiling: 6000
Heat Index: 58°   Visibility: 10mi
Dew Point: 43°   Wind: 12mph
Humidity: 57%   Direction: 140°SE
Pressure: 30.12"   Gusts: NA
Location:  42.46°N, 92.94°W
Report Text: KIFA 222335Z AUTO 14010KT 10SM BKN060 BKN095 15/06 A3012 RMK AO2 T01450060
Loading
Personal Weather Stations






























Interactive Weather Map
Tropical Storm Tracking
New forecast layout! Learn more

10-Day Weather Forecast

Advertisements
Track Severe Weather on mobile